25. Juni 2022

Uhrzeit Code Wetter Temp. Sichtweite Wolkendecke Wind METAR/SPECI
3:00 am
V
55 °F 6¼ mi+ - 140° 140° 3 kt METAR LFCR 250100Z AUTO 14003KT CAVOK 13/13 Q1016 NOSIG
2:30 am
V
57 °F 6¼ mi+ - 130° 130° 3 kt METAR LFCR 250030Z AUTO 13003KT CAVOK 14/13 Q1016 NOSIG
2:00 am
V
57 °F 6¼ mi+ - 130° 130° 3 kt METAR LFCR 250000Z AUTO 13003KT CAVOK 14/13 Q1016 NOSIG
1:30 am
V
57 °F 6¼ mi+ - 140° 140° 5 kt METAR LFCR 242330Z AUTO 14005KT CAVOK 14/13 Q1016 NOSIG
1:00 am
V
57 °F 6¼ mi+ - 140° 140° 2 kt METAR LFCR 242300Z AUTO 14002KT CAVOK 14/12 Q1016 NOSIG
12:30 am
V
57 °F 6¼ mi+ - 100° 100° 2 kt METAR LFCR 242230Z AUTO 10002KT CAVOK 14/13 Q1016 NOSIG
12:00 am
V
57 °F 6¼ mi+ - 170° 170° 2 kt METAR LFCR 242200Z AUTO 17002KT 9999 FEW047 14/12 Q1016 NOSIG

24. Juni 2022

Uhrzeit Code Wetter Temp. Sichtweite Wolkendecke Wind METAR/SPECI
11:30 pm
V
61 °F 6¼ mi+ - Var 000° 0 kt METAR LFCR 242130Z AUTO 00000KT CAVOK 16/13 Q1016 NOSIG
11:00 pm
V
61 °F 6¼ mi+ - 330° 330° 2 kt METAR LFCR 242100Z AUTO 33002KT CAVOK 16/13 Q1016 NOSIG
10:30 pm
V
63 °F 6¼ mi+ - 350° 350° 3 kt METAR LFCR 242030Z AUTO 35003KT CAVOK 17/13 Q1016 NOSIG
10:00 pm
V
64 °F 6¼ mi+ 7.000 ft 340° 340° 4 kt METAR LFCR 242000Z AUTO 34004KT 9999 FEW034 BKN070 18/13 Q1016 NOSIG
9:30 pm
V
64 °F 6¼ mi+ - 320° 320° 4 kt METAR LFCR 241930Z AUTO 32004KT CAVOK 18/13 Q1015 NOSIG
9:00 pm
V
66 °F 6¼ mi+ - 330° 330° 5 kt METAR LFCR 241900Z AUTO 33005KT 9999 FEW039 19/13 Q1015 NOSIG
8:30 pm
V
68 °F 6¼ mi+ - 330° 330° 6 kt METAR LFCR 241830Z AUTO 33006KT 9999 FEW033 20/14 Q1015 NOSIG
8:00 pm
V
68 °F 6¼ mi+ - 300° 300° 5 kt METAR LFCR 241800Z AUTO 30005KT 9999 FEW044 20/13 Q1015 NOSIG
7:30 pm
V
70 °F 6¼ mi+ - 250° 250° 8 kt METAR LFCR 241730Z AUTO 25008KT 9999 FEW044 21/12 Q1015 NOSIG
7:00 pm
V
70 °F 6¼ mi+ - 270° 270° 9 kt METAR LFCR 241700Z AUTO 27009KT 9999 FEW037 21/12 Q1015 NOSIG
6:30 pm
V
70 °F 6¼ mi+ - 290° 290° 8 kt METAR LFCR 241630Z AUTO 29008KT 250V330 9999 FEW040 21/13 Q1015 NOSIG
6:00 pm
V
68 °F 6¼ mi+ 4.600 ft 280° 280° 9 kt METAR LFCR 241600Z AUTO 28009KT 9999 FEW039 BKN046 BKN052 20/12 Q1015 NOSIG
5:30 pm
V
70 °F 6¼ mi+ 4.300 ft 280° 280° 10 kt METAR LFCR 241530Z AUTO 28010KT 240V310 9999 SCT034 BKN043 21/13 Q1015 NOSIG
5:00 pm
V
70 °F 6¼ mi+ 7.400 ft 280° 280° 8 kt METAR LFCR 241500Z AUTO 28008KT 240V320 9999 FEW032 SCT054 BKN074 21/13 Q1015 NOSIG
4:30 pm
V
68 °F 6¼ mi+ 3.400 ft 280° 280° 8 kt METAR LFCR 241430Z AUTO 28008KT 240V310 9999 BKN034/// BKN047/// ///CB 20/13 Q1015 BECMG BKN035
4:00 pm
V
68 °F 6¼ mi+ - 270° 270° 6 kt METAR LFCR 241400Z AUTO 27006KT 220V310 9999 FEW028/// SCT080/// ///TCU 20/13 Q1015 BECMG BKN035
3:30 pm
V
64 °F 6¼ mi+ 5.600 ft 270° 270° 8 kt METAR LFCR 241330Z AUTO 27008KT 9999 SCT048 BKN056 BKN078 18/13 Q1015 NOSIG
3:00 pm
V
63 °F 6¼ mi+ 3.900 ft 290° 290° 11 kt METAR LFCR 241300Z AUTO 29011KT 9999 FEW031 BKN039 BKN046 17/14 Q1015 TEMPO SHRA SCT025CB
2:30 pm
V
66 °F 6¼ mi+ 3.100 ft 250° 250° 10 kt METAR LFCR 241230Z AUTO 25010KT 220V290 9999 BKN031/// BKN038/// OVC056/// ///TCU 19/13 Q1015 TEMPO SHRA SCT025CB
2:00 pm
M
66 °F 6¼ mi+ 2.800 ft 260° 260° 8 kt METAR LFCR 241200Z AUTO 26008KT 220V320 9999 BKN028/// BKN034/// BKN040/// //////CB 19/12 Q1015 BECMG NSC
1:30 pm
V
66 °F 6¼ mi+ 4.600 ft 240° 240° 10 kt METAR LFCR 241130Z AUTO 24010KT 220V280 9999 FEW026 SCT035 BKN046 19/13 Q1015 NOSIG
1:00 pm
M
64 °F 6¼ mi+ 2.100 ft 240° 240° 10 kt METAR LFCR 241100Z AUTO 24010KT 190V280 9999 SCT016/// BKN021/// BKN049/// ///TCU 18/13 Q1015 TEMPO 4000 SHRA BKN030TCU SCT040CB
12:30 pm
M
63 °F 6¼ mi+ 1.900 ft 220° 220° 8 kt METAR LFCR 241030Z AUTO 22008KT 190V270 9999 FEW013/// BKN019/// BKN025/// //////CB 17/14 Q1015 TEMPO 4000 SHRA BECMG NSC
12:00 pm
V
63 °F 6¼ mi+ 3.700 ft 240° 240° 8 kt METAR LFCR 241000Z AUTO 24008KT 200V270 9999 SCT017/// BKN037/// BKN045/// ///CB 17/14 Q1015 TEMPO 4000 SHRA
11:30 am
M
63 °F 6¼ mi+ 1.600 ft 250° 250° 10 kt METAR LFCR 240930Z AUTO 25010KT 9999 BKN016 BKN038 OVC045 17/14 Q1015 TEMPO 4000 SHRA BKN030TCU SCT040CB
11:00 am
M
63 °F 6¼ mi+ 1.600 ft 240° 240° 8 kt METAR LFCR 240900Z AUTO 24008KT 210V290 9999 FEW010 BKN016 BKN230 17/14 Q1015 TEMPO 4000 SHRA BKN030TCU SCT040CB
10:30 am
V
59 °F 6¼ mi+ - 180° 180° 6 kt METAR LFCR 240830Z AUTO 18006KT 9999 ///TCU 15/14 Q1015 TEMPO 28016KT 4000 SHRA BKN030TCU SCT040CB
10:00 am
V
57 °F 6¼ mi+ - 110° 110° 6 kt METAR LFCR 240800Z AUTO 11006KT 070V160 9999 -RA ///CB 14/14 Q1015 TEMPO 28016KT 4000 SHRA BKN004
9:30 am
M
57 °F 5⅝ mi 1.400 ft 180° 180° 5 kt METAR LFCR 240730Z AUTO 18005KT 160V220 9000 RA FEW005/// BKN014/// BKN024/// ///CB 14/13 Q1015 TEMPO 28016KT 4000 SHRA BKN030TCU SCT040CB
9:00 am
L
57 °F 6¼ mi+ 400 ft 230° 230° 7 kt METAR LFCR 240700Z AUTO 23007KT 9999 RA BKN004/// BKN082/// OVC100/// //////CB 14/14 Q1016 TEMPO VRB17G27KT 4000 TSRA BKN030TCU SCT040CB
8:30 am
V
57 °F 6¼ mi+ 8.800 ft Var Var 1 kt METAR LFCR 240630Z AUTO VRB01KT 9999 FEW035/// BKN088/// BKN110/// //////CB 14/14 Q1014 TEMPO VRB17G27KT 4000 TSRA
8:00 am
V
57 °F 6¼ mi+ 8.200 ft 130° 130° 5 kt METAR LFCR 240600Z AUTO 13005KT 090V160 9999 FEW010/// SCT070/// BKN082/// //////CB 14/14 Q1015 TEMPO VRB17G27KT 4000 TSRA
7:30 am
V
57 °F 6¼ mi+ - 090° 090° 5 kt METAR LFCR 240530Z AUTO 09005KT 9999 -RA //////CB 14/14 Q1014 TEMPO VRB17G27KT 4000 SHRA NSC
7:00 am
I
57 °F 2⅛ mi 7.600 ft Var Var 2 kt METAR LFCR 240500Z AUTO VRB02KT 3500 +RA BR FEW005/// SCT011/// OVC076/// //////CB 14/14 Q1014 BECMG CAVOK
6:30 am
L
57 °F 1¼ mi 400 ft 240° 240° 8 kt METAR LFCR 240430Z AUTO 24008KT 210V270 4700 2000 +TSRA BR BKN004/// BKN010/// BKN015/// //////CB 14/14 Q1015 BECMG CAVOK
6:00 am
V
57 °F 6¼ mi+ 7.400 ft 270° 270° 8 kt METAR LFCR 240400Z AUTO 27008KT 240V320 9999 VCTS FEW009/// BKN074/// BKN084/// //////CB 14/14 Q1015 BECMG NSW NSC
5:30 am
V
57 °F 6¼ mi+ 8.400 ft Var Var 3 kt METAR LFCR 240330Z AUTO VRB03KT 9999 -RA FEW046/// OVC084/// //////CB 14/14 Q1013 BECMG NSC
5:00 am
V
57 °F 6¼ mi+ 8.600 ft 010° 010° 4 kt METAR LFCR 240300Z AUTO 01004KT 9999 FEW033/// SCT072/// OVC086/// //////CB 14/13 Q1014 BECMG NSC
4:30 am
V
59 °F 5⅝ mi - 280° 280° 8 kt METAR LFCR 240230Z AUTO 28008KT 9000 RA ///CB 15/14 Q1014 BECMG NSW NSC
4:00 am
V
59 °F 6¼ mi+ - Var Var 1 kt METAR LFCR 240200Z AUTO VRB01KT 9999 //////CB 15/14 Q1014 TEMPO SHRA BECMG NSC
3:30 am
V
61 °F 6¼ mi+ - 320° 320° 8 kt METAR LFCR 240130Z AUTO 32008KT 9999 //////TCU 16/14 Q1015 TEMPO SHRA BECMG NSC
3:00 am
V
59 °F 6¼ mi+ - 240° 240° 5 kt METAR LFCR 240100Z AUTO 24005KT 9999 //////TCU 15/14 Q1015 TEMPO SHRA
2:30 am
V
59 °F 6¼ mi+ - 160° 160° 3 kt METAR LFCR 240030Z AUTO 16003KT 9999 ///TCU 15/14 Q1015 TEMPO SHRA
2:00 am
V
59 °F 6¼ mi+ - 160° 160° 3 kt METAR LFCR 240000Z AUTO 16003KT CAVOK 15/13 Q1015 TEMPO SHRA BKN060TCU
1:30 am
V
61 °F 6¼ mi+ - Var Var 3 kt METAR LFCR 232330Z AUTO VRB03KT CAVOK 16/14 Q1015 TEMPO BKN030TCU
1:00 am
V
61 °F 6¼ mi+ - 090° 090° 3 kt METAR LFCR 232300Z AUTO 09003KT CAVOK 16/14 Q1015 TEMPO BKN030TCU
12:30 am
V
61 °F 6¼ mi+ - 310° 310° 4 kt METAR LFCR 232230Z AUTO 31004KT CAVOK 16/13 Q1015 TEMPO BKN030TCU
12:00 am
V
61 °F 6¼ mi+ - 300° 300° 3 kt METAR LFCR 232200Z AUTO 30003KT 280V340 9999 ///TCU 16/13 Q1016 NOSIG

23. Juni 2022

Uhrzeit Code Wetter Temp. Sichtweite Wolkendecke Wind METAR/SPECI
11:30 pm
V
63 °F 6¼ mi+ - 260° 260° 11 kt METAR LFCR 232130Z AUTO 26011KT 9999 //////TCU 17/14 Q1016 NOSIG
11:00 pm
V
64 °F 6¼ mi+ 6.800 ft 250° 250° 8 kt METAR LFCR 232100Z AUTO 25008KT 9999 FEW041/// BKN068/// OVC088/// ///CB 18/14 Q1016 TEMPO 30020G35KT 4000 TSRA
10:30 pm
V
64 °F 6¼ mi+ - Var Var 2 kt METAR LFCR 232030Z AUTO VRB02KT 9999 //////CB 18/14 Q1015 TEMPO 30020G35KT 4000 TSRA
10:00 pm
V
64 °F 6¼ mi+ 9.000 ft 300° 300° 8 kt METAR LFCR 232000Z AUTO 30008KT 9999 FEW041/// OVC090/// //////CB 18/14 Q1015 TEMPO 30020G35KT 4000 TSRA
9:30 pm
V
66 °F 6¼ mi+ - 310° 310° 4 kt METAR LFCR 231930Z AUTO 31004KT 9999 -RA ///CB 19/15 Q1014 TEMPO 30020G35KT 4000 TSRA
9:00 pm
V
68 °F 6¼ mi+ - 330° 330° 6 kt METAR LFCR 231900Z AUTO 33006KT 9999 //////TCU 20/14 Q1014 TEMPO 30020G35KT 4000 TSRA SCT020 BKN035CB
8:30 pm
V
70 °F 6¼ mi+ - 010° 010° 3 kt METAR LFCR 231830Z AUTO 01003KT 9999 //////CB 21/13 Q1013 TEMPO 30020G35KT 4000 TSRA
8:00 pm
V
72 °F 6¼ mi+ - 340° 340° 3 kt METAR LFCR 231800Z AUTO 34003KT 310V020 CAVOK 22/12 Q1013 TEMPO 32025G45KT 2000 TSRAGR SCT012 BKN025CB
7:30 pm
V
72 °F 6¼ mi+ - 360° 360° 6 kt METAR LFCR 231730Z AUTO 36006KT 330V040 CAVOK 22/13 Q1013 TEMPO 30025G45KT 2000 TSRAGR SCT012 BKN025CB
7:00 pm
V
73 °F 6¼ mi+ - Var Var 2 kt METAR LFCR 231700Z AUTO VRB02KT CAVOK 23/14 Q1013 TEMPO 30025G45KT 2000 TSRAGR SCT012 BKN025CB
6:30 pm
V
72 °F 6¼ mi+ - Var Var 2 kt METAR LFCR 231630Z AUTO VRB02KT CAVOK 22/14 Q1013 TEMPO 30025G45KT 2000 TSRAGR SCT012 BKN025CB
6:00 pm
V
72 °F 6¼ mi+ - Var Var 2 kt METAR LFCR 231600Z AUTO VRB02KT CAVOK 22/14 Q1013 TEMPO 30025G45KT 2000 TSRAGR SCT012 BKN025CB
5:30 pm
V
70 °F 6¼ mi+ - 080° 080° 5 kt METAR LFCR 231530Z AUTO 08005KT 040V120 CAVOK 21/15 Q1013 TEMPO 30025G45KT 2000 TSRAGR SCT012 BKN025CB
5:00 pm
V
70 °F 6¼ mi+ - 080° 080° 6 kt METAR LFCR 231500Z AUTO 08006KT 030V140 9999 FEW017 21/16 Q1013 TEMPO 30025G45KT 2000 TSRAGR SCT012 BKN025CB
4:30 pm
V
68 °F 6¼ mi+ - 080° 080° 6 kt METAR LFCR 231430Z AUTO 08006KT 030V130 9999 SCT015 SCT100 20/15 Q1013 TEMPO 30025G45KT 2000 TSRAGR SCT012 BKN025CB
4:00 pm
M
64 °F 6¼ mi+ 1.200 ft 060° 060° 7 kt METAR LFCR 231400Z AUTO 06007KT 030V090 9999 BKN012 BKN018 BKN048 18/16 Q1014 TEMPO 30020G35KT 4000 TSRA SCT015 BKN035CB
3:30 pm
V
66 °F 6¼ mi+ 4.700 ft 030° 030° 4 kt METAR LFCR 231330Z AUTO 03004KT 340V070 9999 SCT010 BKN047 OVC054 19/16 Q1014 TEMPO 30020G35KT 4000 TSRA SCT015 BKN035CB
3:00 pm
M
63 °F 6¼ mi+ 1.000 ft 360° 360° 4 kt METAR LFCR 231300Z AUTO 36004KT 300V050 9999 BKN010/// BKN050/// ///TCU 17/15 Q1013 TEMPO 30020G35KT 4000 TSRA SCT015 BKN035CB
2:30 pm
M
32 °F 6¼ mi+ 1.100 ft 310° 310° 11 kt METAR LFCR 231230Z AUTO 31011KT 9999 SCT007/// BKN011/// BKN054/// //////CB ///// Q1013 TEMPO 30020G35KT 4000 TSRA SCT015 BKN035CB
2:00 pm
V
61 °F 5⅝ mi 4.600 ft 290° 290° 12 kt METAR LFCR 231200Z AUTO 29012KT 9000 TSRA SCT010/// SCT027/// BKN046/// ///CB 16/15 Q1013 TEMPO SHRA
1:30 pm
V
32 °F 6¼ mi+ - 160° 160° 8 kt METAR LFCR 231130Z AUTO 16008KT 120V200 9999 TS //////CB ///// Q1011 TEMPO VRB15G25KT 2000 TSRA
1:00 pm
V
32 °F 6¼ mi+ 4.400 ft 160° 160° 13 kt METAR LFCR 231100Z AUTO 16013KT 120V190 9999 -TSRA SCT025/// SCT035/// BKN044/// ///CB ///// Q1010 TEMPO VRB15G25KT 2000 TSRA
12:30 pm
M
32 °F 6¼ mi+ 2.900 ft 170° 170° 9 kt METAR LFCR 231030Z AUTO 17009KT 9999 VCTS BKN029/// BKN092/// BKN130/// //////CB ///// Q1010 TEMPO VRB15G25KT 2000 TSRA
12:00 pm
V
32 °F 6¼ mi+ 4.500 ft 130° 130° 12 kt METAR LFCR 231000Z AUTO 13012KT 090V160 9999 VCTS SCT033/// BKN045/// BKN110/// ///CB ///// Q1011 TEMPO VRB15G25KT 2000 TSRA
11:30 am
V
32 °F 6¼ mi+ 11.000 ft 130° 130° 7 kt METAR LFCR 230930Z AUTO 13007KT 080V180 9999 FEW026/// SCT034/// BKN110/// ///CB ///// Q1011 TEMPO VRB15G25KT 2000 TSRA
11:00 am
V
32 °F 6¼ mi+ - 080° 080° 6 kt METAR LFCR 230900Z AUTO 08006KT 040V120 9999 SCT025 SCT031 ///// Q1011 TEMPO 4000 SHRA FEW060CB
10:30 am
M
32 °F 6¼ mi+ 2.400 ft 100° 100° 8 kt METAR LFCR 230830Z AUTO 10008KT 070V140 9999 FEW013 BKN024 ///// Q1011 TEMPO 4000 SHRA FEW060CB
10:00 am
V
32 °F 6¼ mi+ - 090° 090° 6 kt METAR LFCR 230800Z AUTO 09006KT 030V160 9999 SCT021 ///// Q1012 BECMG SCT030TCU
9:30 am
V
32 °F 6¼ mi+ - 080° 080° 6 kt METAR LFCR 230730Z AUTO 08006KT 030V130 CAVOK ///// Q1012 BECMG SCT030TCU
9:00 am
V
32 °F 6¼ mi+ - 080° 080° 4 kt METAR LFCR 230700Z AUTO 08004KT 060V130 CAVOK ///// Q1012 BECMG SCT030TCU
8:30 am
V
66 °F 6¼ mi+ - Var Var 3 kt METAR LFCR 230630Z AUTO VRB03KT CAVOK 19/17 Q1012 BECMG SCT030TCU
8:00 am
V
64 °F 6¼ mi+ - Var Var 3 kt METAR LFCR 230600Z AUTO VRB03KT CAVOK 18/16 Q1012 NOSIG
7:30 am
V
63 °F 6¼ mi+ - 080° 080° 3 kt METAR LFCR 230530Z AUTO 08003KT CAVOK 17/16 Q1012 NOSIG
7:00 am
V
59 °F 6¼ mi+ - Var Var 2 kt METAR LFCR 230500Z AUTO VRB02KT CAVOK 15/14 Q1012 NOSIG
6:30 am
V
61 °F 6¼ mi+ - 060° 060° 4 kt METAR LFCR 230430Z AUTO 06004KT CAVOK 16/15 Q1012 NOSIG
6:00 am
V
61 °F 6¼ mi+ - Var 000° 0 kt METAR LFCR 230400Z AUTO 00000KT CAVOK 16/15 Q1012 NOSIG
5:30 am
V
59 °F 6¼ mi+ - 100° 100° 1 kt METAR LFCR 230330Z AUTO 10001KT CAVOK 15/14 Q1013 NOSIG
5:00 am
V
61 °F 6¼ mi+ - Var Var 2 kt METAR LFCR 230300Z AUTO VRB02KT CAVOK 16/15 Q1013 NOSIG
4:30 am
V
61 °F 6¼ mi+ - 090° 090° 5 kt METAR LFCR 230230Z AUTO 09005KT CAVOK 16/15 Q1013 NOSIG
4:00 am
V
61 °F 6¼ mi+ - 100° 100° 6 kt METAR LFCR 230200Z AUTO 10006KT CAVOK 16/15 Q1013 NOSIG
3:30 am
V
61 °F 6¼ mi+ - 090° 090° 4 kt METAR LFCR 230130Z AUTO 09004KT CAVOK 16/16 Q1013 NOSIG
3:00 am
V
61 °F 6¼ mi+ - 050° 050° 3 kt METAR LFCR 230100Z AUTO 05003KT CAVOK 16/16 Q1013 NOSIG
2:30 am
V
61 °F 6¼ mi+ - Var Var 2 kt METAR LFCR 230030Z AUTO VRB02KT CAVOK 16/16 Q1014 NOSIG
2:00 am
V
63 °F 6¼ mi+ - Var Var 3 kt METAR LFCR 230000Z AUTO VRB03KT 9999 FEW009 17/16 Q1014 NOSIG
1:30 am
V
63 °F 6¼ mi+ 4.800 ft 360° 360° 3 kt METAR LFCR 222330Z AUTO 36003KT 9999 SCT020/// SCT027/// BKN048/// ///TCU 17/16 Q1014 BECMG NSC
1:00 am
V
63 °F 6¼ mi+ 4.600 ft 280° 280° 5 kt METAR LFCR 222300Z AUTO 28005KT 250V310 9999 OVC046/// //////CB 17/17 Q1014 TEMPO SHRA BECMG NSC
12:30 am
V
63 °F 6¼ mi+ - Var Var 2 kt METAR LFCR 222230Z AUTO VRB02KT 9999 SCT048/// ///CB 17/16 Q1014 TEMPO SHRA BECMG NSC
12:00 am
V
64 °F 6¼ mi+ - 090° 090° 3 kt METAR LFCR 222200Z AUTO 09003KT CAVOK 18/17 Q1013 TEMPO SHRA SCT035TCU

22. Juni 2022

Uhrzeit Code Wetter Temp. Sichtweite Wolkendecke Wind METAR/SPECI
11:30 pm
V
64 °F 6¼ mi+ - Var 000° 0 kt METAR LFCR 222130Z AUTO 00000KT 9999 //////CB 18/16 Q1013 TEMPO SHRA
11:00 pm
V
64 °F 6¼ mi+ - 060° 060° 5 kt METAR LFCR 222100Z AUTO 06005KT 9999 ///CB 18/17 Q1013 TEMPO SHRA
10:30 pm
V
66 °F 6¼ mi+ - 050° 050° 5 kt METAR LFCR 222030Z AUTO 05005KT 9999 ///TCU 19/17 Q1013 TEMPO SHRA
10:00 pm
V
66 °F 6¼ mi+ - 050° 050° 5 kt METAR LFCR 222000Z AUTO 05005KT 9999 //////CB 19/17 Q1013 TEMPO VRB20G30KT SHRA
9:30 pm
V
32 °F 6¼ mi+ - 040° 040° 4 kt METAR LFCR 221930Z AUTO 04004KT 360V130 9999 ///CB ///// Q1013 TEMPO VRB20G30KT SHRA
9:00 pm
V
32 °F 6¼ mi+ - 310° 310° 5 kt METAR LFCR 221900Z AUTO 31005KT 270V330 9999 ///CB ///// Q1012 TEMPO VRB20G30KT TSRA
8:30 pm
V
32 °F 6¼ mi+ - 330° 330° 4 kt METAR LFCR 221830Z AUTO 33004KT 280V360 9999 ///CB ///// Q1012 TEMPO VRB20G30KT TSRA
7:30 pm
V
77 °F 6¼ mi+ 5.600 ft 310° 310° 8 kt METAR LFCR 221730Z AUTO 31008KT 280V340 9999 FEW049/// BKN056/// ///CB 25/14 Q1011 TEMPO VRB20G30KT TSRA
7:00 pm
V
77 °F 6¼ mi+ 4.700 ft 320° 320° 10 kt METAR LFCR 221700Z AUTO 32010KT 290V350 9999 BKN047/// OVC066/// ///CB 25/15 Q1011 TEMPO VRB20G30KT TSRA
6:30 pm
V
77 °F 6¼ mi+ - 320° 320° 8 kt METAR LFCR 221630Z AUTO 32008KT 260V010 CAVOK 25/15 Q1011 TEMPO VRB20G30KT TSRA SCT035TCU
6:00 pm
V
77 °F 6¼ mi+ 4.800 ft 300° 300° 9 kt METAR LFCR 221600Z AUTO 30009KT 270V330 9999 BKN048 BKN060 25/15 Q1011 TEMPO VRB20G30KT TSRA SCT035TCU
5:30 pm
V
79 °F 6¼ mi+ - 280° 280° 10 kt METAR LFCR 221530Z AUTO 28010KT 240V320 9999 FEW046 SCT230 26/16 Q1011 TEMPO VRB20G30KT TSRA SCT035TCU
5:00 pm
V
77 °F 6¼ mi+ - 260° 260° 9 kt METAR LFCR 221500Z AUTO 26009KT 220V300 9999 FEW041 SCT074 25/16 Q1011 TEMPO VRB20G30KT TSRA SCT035TCU
Ältere Daten

Laden Sie unsere App herunter

Einfacher Zugriff auf das gesamte Flugwetter auf Ihrem Mobiltelefon und Tablet.
Mit vielen Funktionen, die auf der Website nicht verfügbar sind, wie Offline-Unterstützung und eine persönliche Flughafenliste.

Wir und Dritte verfolgen dein Internetverhalten auf unserer Website mit Cookies. Wenn du fortfährst, gehen wir davon aus, dass du mit unserer Cookie-Richtlinie einverstanden bist. Mehr erfahren